Time;durP1;ratioP1;P1;durP2;ratioP2;P2;SDS_P1;SDS_P2;PMS_P1;PMS_P2;Temp;Humidity;BMP_temperature;BMP_pressure;BME280_temperature;BME280_humidity;BME280_pressure;Samples;Min_cycle;Max_cycle;Signal;HPM_P1;HPM_P2
2022/10/07 00:00:26;;;;;;;3.83;1.30;;;;;;;7.96;100.00;101851.28;6041722;29;20575;-87
2022/10/07 00:03:28;;;;;;;9.02;2.05;;;;;;;7.90;100.00;101849.84;6044130;29;20121;-87
2022/10/07 00:06:30;;;;;;;5.60;1.38;;;;;;;7.87;100.00;101847.38;6039946;29;20117;-87
2022/10/07 00:09:32;;;;;;;6.05;1.50;;;;;;;7.85;100.00;101850.94;6045870;29;20112;-87
2022/10/07 00:12:34;;;;;;;7.10;1.80;;;;;;;7.85;100.00;101850.94;6044819;29;20650;-87
2022/10/07 00:15:36;;;;;;;6.18;1.38;;;;;;;7.81;100.00;101842.53;6044372;29;20049;-87
2022/10/07 00:18:40;;;;;;;3.78;1.52;;;;;;;7.79;100.00;101846.09;6046613;29;20083;-87
2022/10/07 00:21:42;;;;;;;5.15;1.40;;;;;;;7.74;100.00;101844.53;6049768;29;20045;-86
2022/10/07 00:24:43;;;;;;;6.50;1.50;;;;;;;7.71;100.00;101843.84;6047562;29;20056;-87
2022/10/07 00:27:45;;;;;;;8.52;1.75;;;;;;;7.68;100.00;101833.69;6045604;29;20503;-87
2022/10/07 00:30:55;;;;;;;6.32;1.60;;;;;;;7.66;100.00;101825.19;6043255;29;20077;-86
2022/10/07 00:33:58;;;;;;;5.55;1.50;;;;;;;7.67;100.00;101816.53;6040441;29;20060;-87
2022/10/07 00:37:00;;;;;;;7.25;1.85;;;;;;;7.62;100.00;101814.19;6038640;29;20048;-86
2022/10/07 00:40:02;;;;;;;5.30;1.45;;;;;;;7.59;100.00;101811.75;6045473;29;20049;-87
2022/10/07 00:43:20;;;;;;;5.80;1.85;;;;;;;7.57;100.00;101808.41;6038701;29;20551;-87
2022/10/07 00:46:32;;;;;;;9.25;1.95;;;;;;;7.55;100.00;101805.91;6039979;29;20495;-87
2022/10/07 00:49:41;;;;;;;3.80;1.40;;;;;;;7.52;100.00;101793.16;6042977;29;20684;-87
2022/10/07 00:52:49;;;;;;;5.97;1.67;;;;;;;7.52;100.00;101792.31;6044305;29;20041;-87
2022/10/07 00:55:50;;;;;;;6.00;1.50;;;;;;;7.47;100.00;101795.09;6041776;29;20053;-87
2022/10/07 00:58:53;;;;;;;5.60;1.92;;;;;;;7.43;100.00;101788.44;6040077;29;20041;-87
2022/10/07 01:01:54;;;;;;;5.35;1.33;;;;;;;7.40;100.00;101793.69;6044113;29;20140;-87
2022/10/07 01:04:59;;;;;;;5.03;1.77;;;;;;;7.36;100.00;101783.63;6052143;29;20040;-87
2022/10/07 01:08:01;;;;;;;4.57;1.60;;;;;;;7.30;100.00;101787.31;6044128;29;20396;-87
2022/10/07 01:11:21;;;;;;;5.72;1.45;;;;;;;7.28;100.00;101781.41;6043347;29;20047;-87
2022/10/07 01:14:35;;;;;;;8.65;1.77;;;;;;;7.23;100.00;101775.59;6044483;29;20575;-87
2022/10/07 01:17:47;;;;;;;4.38;1.60;;;;;;;7.19;100.00;101774.09;6037932;29;20367;-87
2022/10/07 01:21:17;;;;;;;3.08;1.52;;;;;;;7.16;100.00;101766.50;6036888;29;20177;-87
2022/10/07 01:24:39;;;;;;;7.53;1.48;;;;;;;7.16;100.00;101756.19;6036123;29;20041;-87
2022/10/07 01:27:49;;;;;;;3.78;1.70;;;;;;;7.10;100.00;101752.13;6035159;29;20052;-87
2022/10/07 01:30:55;;;;;;;3.55;1.58;;;;;;;7.07;100.00;101754.84;6042675;29;20233;-87
2022/10/07 01:33:57;;;;;;;4.25;1.50;;;;;;;7.00;100.00;101749.13;6043119;29;20049;-88
2022/10/07 01:37:02;;;;;;;6.63;2.50;;;;;;;6.96;100.00;101752.78;6041194;29;20626;-87
2022/10/07 01:40:09;;;;;;;4.60;1.30;;;;;;;6.88;100.00;101755.69;6038766;29;20538;-87
2022/10/07 01:43:14;;;;;;;6.32;1.90;;;;;;;6.85;100.00;101755.78;6035242;29;20077;-87
2022/10/07 01:46:21;;;;;;;4.03;1.60;;;;;;;6.84;100.00;101746.41;6058576;29;20056;-88
2022/10/07 01:49:22;;;;;;;5.82;1.60;;;;;;;6.81;100.00;101740.56;6041740;29;20116;-87
2022/10/07 01:52:50;;;;;;;4.82;1.70;;;;;;;6.77;100.00;101739.03;6040966;29;20680;-87
2022/10/07 01:56:16;;;;;;;4.88;1.50;;;;;;;6.76;100.00;101734.75;6033169;29;20049;-87
2022/10/07 01:59:30;;;;;;;4.68;1.67;;;;;;;6.76;100.00;101729.63;6051519;29;20408;-87
2022/10/07 02:02:59;;;;;;;5.53;1.83;;;;;;;6.73;100.00;101724.63;6036860;29;20490;-87
2022/10/07 02:06:07;;;;;;;5.43;1.83;;;;;;;6.68;100.00;101717.09;6044003;29;20229;-87
2022/10/07 02:09:47;;;;;;;6.22;2.10;;;;;;;6.65;100.00;101719.81;6062297;29;20044;-87
2022/10/07 02:13:15;;;;;;;6.50;1.73;;;;;;;6.65;100.00;101714.66;6029405;29;20073;-87
2022/10/07 02:16:40;;;;;;;4.50;2.20;;;;;;;6.62;100.00;101701.94;6031743;29;20042;-87
2022/10/07 02:19:47;;;;;;;6.30;2.00;;;;;;;6.58;100.00;101706.34;6035162;29;20400;-87
2022/10/07 02:22:50;;;;;;;5.38;2.22;;;;;;;6.55;100.00;101700.53;6034799;29;20056;-87
2022/10/07 02:25:54;;;;;;;11.88;2.35;;;;;;;6.52;100.00;101696.34;6039154;29;20873;-87
2022/10/07 02:28:58;;;;;;;6.03;1.83;;;;;;;6.51;100.00;101694.69;6045785;29;20046;-87
2022/10/07 02:32:05;;;;;;;5.18;1.92;;;;;;;6.51;100.00;101691.25;6042338;29;20433;-87
2022/10/07 02:35:17;;;;;;;6.13;1.98;;;;;;;6.50;100.00;101693.00;6030199;29;20041;-87
2022/10/07 02:38:21;;;;;;;4.95;1.63;;;;;;;6.47;100.00;101680.28;6040790;29;20508;-87
2022/10/07 02:41:34;;;;;;;4.25;2.10;;;;;;;6.46;100.00;101691.50;6047657;29;20045;-87
2022/10/07 02:44:50;;;;;;;5.20;1.90;;;;;;;6.39;100.00;101685.75;6039145;29;20384;-87
2022/10/07 02:48:14;;;;;;;6.20;1.60;;;;;;;6.34;100.00;101677.41;6046084;29;20343;-87
2022/10/07 02:51:19;;;;;;;4.70;2.00;;;;;;;6.34;100.00;101674.00;6050724;29;20100;-88
2022/10/07 02:54:31;;;;;;;4.47;2.00;;;;;;;6.33;100.00;101674.88;6047636;29;20048;-87
2022/10/07 02:57:38;;;;;;;6.13;1.77;;;;;;;6.31;100.00;101674.13;6032477;29;20141;-88
2022/10/07 03:00:45;;;;;;;3.97;1.88;;;;;;;6.29;100.00;101668.22;6059855;29;20048;-87
2022/10/07 03:03:48;;;;;;;8.45;2.38;;;;;;;6.30;100.00;101667.31;6042808;29;20060;-87
2022/10/07 03:06:51;;;;;;;3.53;1.48;;;;;;;6.27;100.00;101657.16;6032948;29;20499;-87
2022/10/07 03:09:53;;;;;;;7.22;1.98;;;;;;;6.27;100.00;101659.75;6040474;29;20045;-87
2022/10/07 03:12:56;;;;;;;3.83;1.65;;;;;;;6.27;100.00;101663.13;6046717;29;20528;-87
2022/10/07 03:15:57;;;;;;;5.75;1.70;;;;;;;6.27;100.00;101664.88;6047198;29;20049;-87
2022/10/07 03:19:01;;;;;;;5.20;1.73;;;;;;;6.27;100.00;101655.44;6054663;29;20511;-87
2022/10/07 03:22:11;;;;;;;;;;;;;;;6.28;100.00;101659.66;6033139;29;20512;-87
2022/10/07 03:25:15;;;;;;;5.28;1.40;;;;;;;6.29;100.00;101665.66;6052339;29;20382;-87
2022/10/07 03:28:19;;;;;;;6.90;1.77;;;;;;;6.31;100.00;101656.13;6048628;29;20595;-87
2022/10/07 03:31:21;;;;;;;4.85;1.40;;;;;;;6.33;100.00;101652.56;6045750;29;20619;-87
2022/10/07 03:34:26;;;;;;;7.80;1.60;;;;;;;6.40;100.00;101645.44;6045373;29;20053;-87
2022/10/07 03:37:29;;;;;;;2.40;1.15;;;;;;;6.45;100.00;101643.50;6047761;29;20056;-87
2022/10/07 03:40:39;;;;;;;3.78;1.67;;;;;;;6.49;100.00;101650.19;6048711;29;20056;-87
2022/10/07 03:43:41;;;;;;;4.88;1.40;;;;;;;6.55;100.00;101643.94;6050199;29;20052;-87
2022/10/07 03:46:50;;;;;;;6.28;1.35;;;;;;;6.57;100.00;101642.13;6052804;29;20093;-87
2022/10/07 03:49:56;;;;;;;6.47;1.30;;;;;;;6.62;100.00;101638.44;6043625;29;20057;-87
2022/10/07 03:52:58;;;;;;;3.28;1.02;;;;;;;6.65;100.00;101643.44;6043496;29;20053;-87
2022/10/07 03:56:01;;;;;;;6.60;1.55;;;;;;;6.65;100.00;101635.72;6056030;29;20547;-87
2022/10/07 03:59:04;;;;;;;3.28;1.30;;;;;;;6.68;100.00;101632.19;6037432;29;20052;-87
2022/10/07 04:02:06;;;;;;;4.88;1.60;;;;;;;6.64;100.00;101626.34;6040635;29;20121;-87
2022/10/07 04:05:09;;;;;;;4.07;1.60;;;;;;;6.60;100.00;101626.56;6056018;29;20079;-87
2022/10/07 04:08:16;;;;;;;5.25;1.70;;;;;;;6.54;100.00;101627.69;6042146;29;20440;-87
2022/10/07 04:11:18;;;;;;;3.05;1.48;;;;;;;6.52;100.00;101621.75;6057874;29;20076;-87
2022/10/07 04:14:20;;;;;;;5.10;1.92;;;;;;;6.45;100.00;101621.19;6042154;29;20083;-87
2022/10/07 04:17:23;;;;;;;6.07;1.60;;;;;;;6.47;100.00;101615.97;6042439;29;20720;-87
2022/10/07 04:20:25;;;;;;;5.07;1.67;;;;;;;6.40;100.00;101615.41;6045543;29;20098;-87
2022/10/07 04:23:28;;;;;;;4.60;1.85;;;;;;;6.35;100.00;101612.22;6054946;29;20056;-87
2022/10/07 04:26:30;;;;;;;3.40;1.42;;;;;;;6.31;100.00;101612.41;6042886;29;20679;-88
2022/10/07 04:29:32;;;;;;;4.70;1.67;;;;;;;6.30;100.00;101609.00;6040942;29;20136;-87
2022/10/07 04:32:39;;;;;;;5.05;1.60;;;;;;;6.30;100.00;101610.75;6041726;29;20132;-87
2022/10/07 04:35:43;;;;;;;4.93;1.85;;;;;;;6.29;100.00;101601.38;6048924;29;20056;-87
2022/10/07 04:38:49;;;;;;;4.70;1.35;;;;;;;6.28;100.00;101599.69;6058227;29;20056;-87
2022/10/07 04:41:53;;;;;;;4.40;2.28;;;;;;;6.27;100.00;101598.03;6045520;29;20051;-87
2022/10/07 04:45:00;;;;;;;4.32;1.27;;;;;;;6.24;100.00;101604.97;6029687;29;20420;-87
2022/10/07 04:48:04;;;;;;;4.63;1.90;;;;;;;6.24;100.00;101604.97;6048706;29;20530;-87
2022/10/07 04:51:08;;;;;;;2.88;1.40;;;;;;;6.27;100.00;101596.28;6041040;29;20056;-87
2022/10/07 04:54:12;;;;;;;8.38;2.53;;;;;;;6.28;100.00;101591.97;6043194;29;20076;-87
2022/10/07 04:57:20;;;;;;;4.45;1.40;;;;;;;6.33;100.00;101595.19;6040057;29;20166;-87
2022/10/07 05:00:23;;;;;;;8.95;1.60;;;;;;;6.33;100.00;101590.03;6028292;29;20053;-87
2022/10/07 05:03:28;;;;;;;6.75;1.60;;;;;;;6.38;100.00;101599.22;6035060;29;20049;-87
2022/10/07 05:06:31;;;;;;;4.03;1.42;;;;;;;6.42;100.00;101594.78;6045567;29;20048;-87
2022/10/07 05:09:33;;;;;;;3.60;1.38;;;;;;;6.40;100.00;101594.84;6040260;29;20049;-87
2022/10/07 05:12:35;;;;;;;8.55;1.95;;;;;;;6.43;100.00;101599.00;6047116;29;20140;-87
2022/10/07 05:15:46;;;;;;;3.00;1.20;;;;;;;6.46;100.00;101591.19;6036036;29;20828;-87
2022/10/07 05:18:49;;;;;;;11.13;1.75;;;;;;;6.49;100.00;101588.47;6044992;29;20508;-87
2022/10/07 05:21:51;;;;;;;5.30;1.45;;;;;;;6.51;100.00;101590.94;6048034;29;20045;-87
2022/10/07 05:24:53;;;;;;;4.80;1.60;;;;;;;6.50;100.00;101587.53;6046663;29;20125;-87
2022/10/07 05:27:55;;;;;;;2.80;1.58;;;;;;;6.51;100.00;101585.81;6061117;29;20049;-87
2022/10/07 05:31:09;;;;;;;5.43;1.75;;;;;;;6.51;100.00;101584.09;6049819;29;20045;-87
2022/10/07 05:34:12;;;;;;;8.68;2.30;;;;;;;6.52;100.00;101583.19;6040081;29;20044;-87
2022/10/07 05:37:14;;;;;;;6.63;1.70;;;;;;;6.53;100.00;101579.69;6045417;29;20132;-87
2022/10/07 05:40:16;;;;;;;5.22;1.60;;;;;;;6.55;100.00;101577.06;6046034;29;20079;-87
2022/10/07 05:43:19;;;;;;;3.20;1.70;;;;;;;6.57;100.00;101573.50;6021806;29;20068;-87
2022/10/07 05:46:22;;;;;;;7.57;1.40;;;;;;;6.57;100.00;101570.09;6047354;29;20104;-87
2022/10/07 05:49:29;;;;;;;7.15;1.60;;;;;;;6.59;100.00;101569.13;6053991;29;20503;-87
2022/10/07 05:52:32;;;;;;;7.75;1.95;;;;;;;6.64;100.00;101567.19;6038643;29;20403;-87
2022/10/07 05:55:37;;;;;;;7.45;2.08;;;;;;;6.67;100.00;101558.50;6036036;29;20041;-87
2022/10/07 05:58:41;;;;;;;3.25;1.42;;;;;;;6.72;100.00;101560.84;6058550;29;20045;-87
2022/10/07 06:01:44;;;;;;;5.70;1.88;;;;;;;6.73;100.00;101558.19;6045355;29;20041;-87
2022/10/07 06:04:50;;;;;;;5.97;1.85;;;;;;;6.79;100.00;101567.41;6037503;29;20153;-87
2022/10/07 06:07:53;;;;;;;5.57;1.67;;;;;;;6.80;100.00;101567.31;6025244;29;20053;-87
2022/10/07 06:14:27;;;;;;;13.30;2.17;;;;;;;6.87;100.00;101560.13;6041901;29;20056;-87
2022/10/07 06:17:28;;;;;;;8.13;2.60;;;;;;;6.93;100.00;101556.44;6042460;29;20132;-87
2022/10/07 06:20:33;;;;;;;3.95;1.50;;;;;;;6.95;100.00;101564.94;6042988;29;20045;-87
2022/10/07 06:23:34;;;;;;;4.07;2.00;;;;;;;6.98;100.00;101549.34;6040972;29;20415;-87
2022/10/07 06:26:37;;;;;;;2.33;1.55;;;;;;;6.99;100.00;101546.69;6033474;29;20105;-87
2022/10/07 06:29:41;;;;;;;6.35;1.80;;;;;;;7.01;100.00;101546.63;6044026;29;20385;-87
2022/10/07 06:32:43;;;;;;;4.75;1.92;;;;;;;7.01;100.00;101547.47;6043751;29;20053;-87
2022/10/07 06:35:45;;;;;;;4.88;1.55;;;;;;;7.06;100.00;101545.50;6031855;29;20045;-87
2022/10/07 06:38:49;;;;;;;7.32;2.13;;;;;;;7.11;100.00;101546.09;6042938;29;20053;-86
2022/10/07 06:41:56;;;;;;;6.85;1.80;;;;;;;7.15;100.00;101551.94;6037258;29;20515;-87
2022/10/07 06:45:06;;;;;;;9.98;1.85;;;;;;;7.21;100.00;101543.94;6037312;29;20055;-87
2022/10/07 06:48:10;;;;;;;5.82;1.80;;;;;;;7.26;100.00;101551.44;6040536;29;20598;-87
2022/10/07 06:51:19;;;;;;;5.15;1.38;;;;;;;7.30;100.00;101547.78;6038470;29;20041;-87
2022/10/07 06:54:23;;;;;;;7.20;1.75;;;;;;;7.36;100.00;101552.66;6043097;29;20064;-87
2022/10/07 06:57:25;;;;;;;7.25;2.17;;;;;;;7.39;100.00;101549.09;6040749;29;20053;-87
2022/10/07 07:00:48;;;;;;;;;;;;;;;7.48;100.00;101559.78;6051329;29;20050;-87
2022/10/07 07:03:50;;;;;;;3.47;1.27;;;;;;;7.55;100.00;101549.97;6043869;29;20322;-87
2022/10/07 07:06:52;;;;;;;3.10;1.42;;;;;;;7.61;100.00;101544.53;6051013;29;20046;-87
2022/10/07 07:09:55;;;;;;;7.80;1.77;;;;;;;7.67;100.00;101545.97;6020844;29;20120;-87
2022/10/07 07:12:57;;;;;;;3.60;1.75;;;;;;;7.72;100.00;101544.81;6040012;29;20416;-87
2022/10/07 07:15:59;;;;;;;8.43;1.95;;;;;;;7.76;100.00;101546.34;6041284;29;20061;-87
2022/10/07 07:19:07;;;;;;;12.35;2.28;;;;;;;7.82;100.00;101545.19;6037520;29;20156;-87
2022/10/07 07:22:10;;;;;;;4.20;1.90;;;;;;;7.86;100.00;101548.47;6022030;29;20045;-87
2022/10/07 07:25:14;;;;;;;5.55;1.63;;;;;;;7.91;100.00;101546.47;6057582;29;20049;-87
2022/10/07 07:28:16;;;;;;;3.95;1.65;;;;;;;7.96;100.00;101549.66;6045558;29;20053;-87
2022/10/07 07:31:18;;;;;;;2.83;1.67;;;;;;;8.00;100.00;101540.84;6045972;29;20530;-87
2022/10/07 07:34:20;;;;;;;5.38;1.70;;;;;;;8.04;100.00;101547.50;6059437;29;20198;-87
2022/10/07 07:37:24;;;;;;;6.90;1.95;;;;;;;8.10;100.00;101541.19;6047406;29;20587;-87
2022/10/07 07:40:29;;;;;;;10.80;2.38;;;;;;;8.15;100.00;101547.78;6052685;29;20054;-87
2022/10/07 07:43:31;;;;;;;5.40;1.80;;;;;;;8.20;100.00;101547.56;6057221;29;20041;-88
2022/10/07 07:46:35;;;;;;;6.97;1.67;;;;;;;8.26;100.00;101544.63;6043437;29;20068;-88
2022/10/07 07:49:37;;;;;;;4.70;2.13;;;;;;;8.29;100.00;101548.78;6035425;29;20164;-87
2022/10/07 07:52:41;;;;;;;4.22;1.50;;;;;;;8.34;100.00;101546.81;6053308;29;20060;-87
2022/10/07 07:55:56;;;;;;;5.20;2.53;;;;;;;8.37;100.00;101550.06;6038022;29;20049;-87
2022/10/07 07:59:00;;;;;;;4.97;2.40;;;;;;;8.41;100.00;101538.69;6055119;29;20050;-87
2022/10/07 08:02:04;;;;;;;6.43;2.30;;;;;;;8.47;100.00;101539.25;6035524;29;20041;-88
2022/10/07 08:05:07;;;;;;;7.47;1.90;;;;;;;8.52;100.00;101539.84;6038044;29;20045;-87
2022/10/07 08:08:09;;;;;;;4.30;1.50;;;;;;;8.61;100.00;101536.78;6035538;29;20404;-87
2022/10/07 08:11:17;;;;;;;5.80;1.60;;;;;;;8.66;100.00;101531.38;6023702;29;20454;-88
2022/10/07 08:14:21;;;;;;;6.53;2.70;;;;;;;8.73;100.00;101530.94;6047847;29;20060;-87
2022/10/07 08:17:25;;;;;;;4.60;1.67;;;;;;;8.76;100.00;101527.38;6035132;29;20057;-88
2022/10/07 08:20:27;;;;;;;4.13;1.50;;;;;;;8.83;100.00;101526.09;6044157;29;20423;-87
2022/10/07 08:23:30;;;;;;;4.20;1.50;;;;;;;8.87;100.00;101519.00;6045505;29;20168;-88
2022/10/07 08:26:34;;;;;;;5.47;1.70;;;;;;;8.91;100.00;101512.78;6052214;29;20045;-87
2022/10/07 08:29:38;;;;;;;6.15;1.40;;;;;;;8.96;100.00;101510.75;6049020;29;20131;-88
2022/10/07 08:32:40;;;;;;;8.60;1.83;;;;;;;9.03;100.00;101514.66;6057706;29;20496;-87
2022/10/07 08:35:42;;;;;;;8.23;1.75;;;;;;;9.11;100.00;101504.72;6050833;29;20053;-88
2022/10/07 08:38:45;;;;;;;7.28;1.75;;;;;;;9.17;100.00;101501.81;6043711;29;20404;-88
2022/10/07 08:41:55;;;;;;;5.05;1.63;;;;;;;9.25;100.00;101504.78;6058227;29;20055;-88
2022/10/07 08:44:57;;;;;;;5.53;2.60;;;;;;;9.33;100.00;101506.09;6042407;29;20464;-87
2022/10/07 08:48:04;;;;;;;4.68;1.30;;;;;;;9.41;100.00;101498.69;6051291;29;20044;-87
2022/10/07 08:51:20;;;;;;;9.23;2.08;;;;;;;9.47;100.00;101495.78;6043875;29;20726;-87
2022/10/07 08:54:27;;;;;;;5.00;1.52;;;;;;;9.57;100.00;101496.91;6053719;29;20820;-87
2022/10/07 08:57:53;;;;;;;4.35;1.40;;;;;;;9.66;100.00;101498.94;6049315;29;20052;-87
2022/10/07 09:01:16;;;;;;;7.57;1.67;;;;;;;9.79;100.00;101491.28;6041519;29;20294;-87
2022/10/07 09:04:42;;;;;;;6.45;1.77;;;;;;;9.89;100.00;101487.22;6045926;29;20048;-87
2022/10/07 09:07:58;;;;;;;6.00;1.42;;;;;;;9.98;100.00;101478.03;6046757;29;20045;-87
2022/10/07 09:11:14;;;;;;;3.38;1.27;;;;;;;10.10;100.00;101479.06;6050572;29;20424;-87
2022/10/07 09:14:30;;;;;;;7.20;1.50;;;;;;;10.16;100.00;101478.69;6045829;29;20045;-87
2022/10/07 09:17:40;;;;;;;7.15;1.50;;;;;;;10.27;100.00;101473.66;6040710;29;20526;-87
2022/10/07 09:20:52;;;;;;;4.82;1.63;;;;;;;10.38;100.00;101472.19;6039399;29;20070;-87
2022/10/07 09:24:19;;;;;;;5.35;2.05;;;;;;;10.48;100.00;101471.53;6039225;29;20052;-87
2022/10/07 09:27:21;;;;;;;4.28;1.50;;;;;;;10.66;100.00;101460.94;6044243;29;20042;-88
2022/10/07 09:30:27;;;;;;;8.18;1.60;;;;;;;10.78;100.00;101457.53;6037639;29;20064;-86
2022/10/07 09:33:30;;;;;;;9.02;1.90;;;;;;;10.89;100.00;101447.31;6033422;29;20108;-86
2022/10/07 09:36:31;;;;;;;6.43;1.40;;;;;;;11.04;100.00;101447.25;6043054;29;20049;-85
2022/10/07 09:39:33;;;;;;;4.38;1.40;;;;;;;11.19;100.00;101435.84;6039841;29;20400;-85
2022/10/07 09:42:48;;;;;;;7.35;1.65;;;;;;;11.31;100.00;101429.84;6043823;29;20057;-85
2022/10/07 09:45:50;;;;;;;4.03;1.30;;;;;;;11.47;100.00;101432.22;6046225;29;20397;-86
2022/10/07 09:49:00;;;;;;;3.75;1.00;;;;;;;11.62;100.00;101430.34;6040423;29;20489;-86
2022/10/07 09:52:23;;;;;;;4.73;1.10;;;;;;;11.69;100.00;101426.38;6039988;29;20059;-86
2022/10/07 09:55:40;;;;;;;6.32;1.40;;;;;;;11.77;100.00;101431.88;6041492;29;20424;-86
2022/10/07 09:58:42;;;;;;;5.13;1.58;;;;;;;11.89;100.00;101426.81;6040857;29;20033;-86
2022/10/07 10:02:14;;;;;;;5.88;1.55;;;;;;;12.05;100.00;101419.59;6040450;29;20045;-85
2022/10/07 10:05:29;;;;;;;6.85;1.50;;;;;;;12.23;100.00;101420.88;6038631;29;20052;-86
2022/10/07 10:08:41;;;;;;;4.30;1.20;;;;;;;12.38;100.00;101416.34;6043014;29;20069;-86
2022/10/07 10:12:02;;;;;;;7.90;1.48;;;;;;;12.45;100.00;101416.75;6033057;29;20091;-86
2022/10/07 10:15:26;;;;;;;4.13;1.75;;;;;;;12.52;100.00;101412.78;6035561;29;20386;-86
2022/10/07 10:18:30;;;;;;;5.65;1.35;;;;;;;12.67;100.00;101411.63;6042999;29;20768;-86
2022/10/07 10:21:42;;;;;;;8.38;1.40;;;;;;;12.88;100.00;101418.78;6039807;29;20049;-86
2022/10/07 10:28:10;;;;;;;7.17;1.43;;;;;;;13.43;96.62;101406.00;6039286;29;20048;-86
2022/10/07 10:31:52;;;;;;;3.38;1.17;;;;;;;13.50;96.49;101402.81;6044832;29;20065;-86
2022/10/07 10:35:33;;;;;;;10.60;1.73;;;;;;;13.66;95.00;101393.81;6033578;29;20086;-85
2022/10/07 10:39:00;;;;;;;6.13;1.33;;;;;;;13.80;94.09;101388.38;6041296;29;20456;-86
2022/10/07 10:42:10;;;;;;;3.35;1.30;;;;;;;13.84;94.73;101383.72;6041037;29;20060;-86
2022/10/07 10:45:27;;;;;;;5.85;1.20;;;;;;;14.08;92.90;101373.16;6043372;29;20530;-86
2022/10/07 10:48:52;;;;;;;5.35;1.20;;;;;;;14.20;92.91;101370.38;6043589;29;20049;-86
2022/10/07 10:52:13;;;;;;;13.38;2.03;;;;;;;14.25;91.64;101358.78;6032034;29;20483;-88
2022/10/07 10:55:21;;;;;;;4.70;1.40;;;;;;;14.39;93.02;101354.09;6036466;29;20181;-86
2022/10/07 10:58:45;;;;;;;6.72;1.50;;;;;;;14.68;89.39;101348.28;6041486;29;20071;-86
2022/10/07 11:02:12;;;;;;;6.18;1.80;;;;;;;14.75;88.62;101336.38;6031025;29;20042;-86
2022/10/07 11:05:34;;;;;;;6.30;1.58;;;;;;;14.98;88.03;101331.03;5993315;29;20199;-86
2022/10/07 11:08:37;;;;;;;9.82;1.63;;;;;;;15.08;83.93;101327.53;5987605;29;20232;-86
2022/10/07 11:11:41;;;;;;;7.88;1.63;;;;;;;15.11;82.45;101323.81;5998980;29;20053;-86
2022/10/07 11:14:48;;;;;;;8.10;1.52;;;;;;;15.37;82.79;101323.34;5997372;29;20269;-86
2022/10/07 11:17:51;;;;;;;5.70;1.50;;;;;;;15.61;80.79;101320.41;5992360;29;20052;-86
2022/10/07 11:20:58;;;;;;;7.10;1.60;;;;;;;15.69;78.49;101317.94;5994376;29;20538;-85
2022/10/07 11:24:14;;;;;;;5.85;1.48;;;;;;;15.81;79.10;101305.63;5991888;29;20504;-86
2022/10/07 11:27:23;;;;;;;4.45;1.48;;;;;;;15.79;77.42;101303.16;5979208;29;20049;-86
2022/10/07 11:30:29;;;;;;;4.55;1.13;;;;;;;15.86;78.22;101295.59;5988425;29;20081;-87
2022/10/07 11:33:54;;;;;;;8.52;1.80;;;;;;;15.86;79.04;101291.19;5991197;29;20050;-86
2022/10/07 11:37:20;;;;;;;7.28;1.38;;;;;;;15.91;79.62;101286.38;5983721;29;20506;-87
2022/10/07 11:40:25;;;;;;;7.53;1.90;;;;;;;16.04;78.30;101285.28;5986248;29;20058;-86
2022/10/07 11:43:37;;;;;;;5.88;1.77;;;;;;;16.27;76.83;101276.22;6043763;29;20070;-87
2022/10/07 11:46:43;;;;;;;3.00;1.02;;;;;;;16.21;74.15;101266.31;6042332;29;20041;-87
2022/10/07 11:49:56;;;;;;;5.55;1.25;;;;;;;16.19;74.97;101260.38;6046476;29;20040;-87
2022/10/07 11:53:19;;;;;;;8.45;1.92;;;;;;;16.39;77.82;101258.56;6049575;29;20053;-87
2022/10/07 11:56:24;;;;;;;6.28;1.27;;;;;;;16.48;76.13;101247.28;6049632;29;20100;-87
2022/10/07 11:59:35;;;;;;;3.67;1.60;;;;;;;16.58;75.67;101248.06;6045067;29;20140;-87
2022/10/07 12:02:45;;;;;;;7.60;1.20;;;;;;;16.64;74.91;101235.38;6044133;29;20071;-87
2022/10/07 12:05:47;;;;;;;;;;;;;;;16.58;73.32;101236.78;6046542;29;20739;-87
2022/10/07 12:08:50;;;;;;;8.55;1.65;;;;;;;16.63;74.43;101231.97;6039281;29;20266;-87
2022/10/07 12:11:55;;;;;;;2.55;0.90;;;;;;;16.62;73.01;101214.63;6042480;29;20076;-86
2022/10/07 12:14:59;;;;;;;5.07;1.42;;;;;;;16.51;72.33;101209.56;6048362;29;20037;-87
2022/10/07 12:18:04;;;;;;;5.72;1.45;;;;;;;16.54;73.64;101209.28;6047003;29;20041;-88
2022/10/07 12:21:06;;;;;;;6.22;1.23;;;;;;;16.71;74.05;101197.25;6036664;29;20045;-87
2022/10/07 12:24:13;;;;;;;5.38;1.52;;;;;;;16.75;73.16;101196.00;6049516;29;20049;-87
2022/10/07 12:28:23;;;;;;;5.25;1.48;;;;;;;-145.48;100.00;64539.38;6039833;29;20074;-86
2022/10/07 12:32:42;;;;;;;6.00;1.30;;;;;;;-145.48;100.00;64539.38;6051142;29;20038;-87
2022/10/07 12:35:46;;;;;;;;;;;;;;;16.99;71.12;101180.63;6029592;29;20049;-87
2022/10/07 12:38:54;;;;;;;8.18;1.20;;;;;;;17.05;69.21;101171.38;6033753;29;20030;-87
2022/10/07 12:41:58;;;;;;;8.95;1.73;;;;;;;17.09;69.72;101164.88;6035553;29;20063;-87
2022/10/07 12:45:02;;;;;;;4.93;1.30;;;;;;;17.16;68.07;101158.06;6038439;29;20044;-87
2022/10/07 12:48:09;;;;;;;6.57;1.60;;;;;;;17.23;68.50;101159.09;6034661;29;20053;-88
2022/10/07 12:51:25;;;;;;;6.57;1.90;;;;;;;17.20;69.50;101153.34;6039401;29;20045;-87
2022/10/07 12:54:35;;;;;;;4.45;1.10;;;;;;;17.24;69.75;101144.22;6040466;29;20209;-87
2022/10/07 12:57:41;;;;;;;5.47;1.20;;;;;;;17.30;68.38;101148.06;6030094;29;20472;-87
2022/10/07 13:02:17;;;;;;;4.68;1.27;;;;;;;-145.48;100.00;64539.38;6040467;29;20053;-87
2022/10/07 13:06:33;;;;;;;4.55;1.25;;;;;;;-145.48;100.00;64539.38;6035507;29;20155;-87
2022/10/07 13:10:42;;;;;;;5.03;1.65;;;;;;;-145.48;100.00;64539.38;6045839;29;20090;-87
2022/10/07 13:15:09;;;;;;;3.70;1.27;;;;;;;-145.48;100.00;64539.38;6030939;29;20047;-87
2022/10/07 13:19:19;;;;;;;7.15;1.27;;;;;;;-145.48;100.00;64539.38;6029511;29;20440;-88
2022/10/07 13:23:20;;;;;;;4.28;1.20;;;;;;;-145.48;100.00;64539.38;6029818;29;20088;-87
2022/10/07 13:27:28;;;;;;;6.28;1.10;;;;;;;-145.48;100.00;64539.38;6029170;29;20045;-87
2022/10/07 13:31:34;;;;;;;6.15;1.20;;;;;;;-145.48;100.00;64539.38;6029871;29;20337;-86
2022/10/07 13:35:36;;;;;;;4.88;1.35;;;;;;;-145.48;100.00;64539.38;6032748;29;20065;-88
2022/10/07 13:39:38;;;;;;;6.30;1.35;;;;;;;-145.48;100.00;64539.38;6028653;29;20579;-88
2022/10/07 13:43:41;;;;;;;5.93;1.27;;;;;;;-145.48;100.00;64539.38;6032287;29;20077;-87
2022/10/07 13:47:52;;;;;;;6.35;1.60;;;;;;;-145.48;100.00;64539.38;6030665;29;20060;-87
2022/10/07 13:51:56;;;;;;;7.53;1.23;;;;;;;-145.48;100.00;64539.38;6030840;29;20057;-87
2022/10/07 13:56:14;;;;;;;4.65;1.45;;;;;;;-145.48;100.00;64539.38;6040600;29;20060;-87
2022/10/07 14:00:16;;;;;;;4.82;1.20;;;;;;;-145.48;100.00;64539.38;6045396;29;20075;-87
2022/10/07 14:04:24;;;;;;;5.60;1.13;;;;;;;-145.48;100.00;64539.38;6040605;29;20504;-87
2022/10/07 14:08:32;;;;;;;4.78;1.30;;;;;;;-145.48;100.00;64539.38;6049189;29;20055;-87
2022/10/07 14:12:35;;;;;;;3.70;1.10;;;;;;;-145.48;100.00;64539.38;6033020;29;20045;-87
2022/10/07 14:16:40;;;;;;;7.20;1.60;;;;;;;-145.48;100.00;64539.38;6036590;29;20515;-87
2022/10/07 14:20:54;;;;;;;6.03;1.02;;;;;;;-145.48;100.00;64539.38;6027580;29;20057;-87
2022/10/07 14:24:57;;;;;;;6.55;1.27;;;;;;;-145.48;100.00;64539.38;6028551;29;20080;-87
2022/10/07 14:29:28;;;;;;;6.32;1.13;;;;;;;-145.48;100.00;64539.38;6040285;29;20041;-86
2022/10/07 14:38:17;;;;;;;7.38;1.30;;;;;;;-145.48;100.00;64539.38;6030551;29;20607;-87
2022/10/07 14:42:26;;;;;;;5.65;1.10;;;;;;;-145.48;100.00;64539.38;6035992;29;20050;-87
2022/10/07 14:46:27;;;;;;;7.32;1.25;;;;;;;-145.48;100.00;64539.38;6039098;29;20044;-87
2022/10/07 14:50:28;;;;;;;6.28;1.05;;;;;;;-145.48;100.00;64539.38;6046400;29;20415;-87
2022/10/07 14:54:29;;;;;;;5.03;1.48;;;;;;;-145.48;100.00;64539.38;6044154;29;20602;-87
2022/10/07 14:58:30;;;;;;;8.32;1.40;;;;;;;-145.48;100.00;64539.38;6040913;29;20049;-87
2022/10/07 15:02:30;;;;;;;6.10;1.83;;;;;;;-145.48;100.00;64539.38;6047533;29;20044;-87
2022/10/07 15:06:30;;;;;;;3.55;1.20;;;;;;;-145.48;100.00;64539.38;6041955;29;20048;-87
2022/10/07 15:10:32;;;;;;;5.88;1.30;;;;;;;-145.48;100.00;64539.38;6045431;29;20060;-87
2022/10/07 15:14:32;;;;;;;5.00;1.20;;;;;;;-145.48;100.00;64539.38;6039664;29;20076;-86
2022/10/07 15:18:32;;;;;;;3.80;1.33;;;;;;;-145.48;100.00;64539.38;6046413;29;20049;-87